Time;durP1;ratioP1;P1;durP2;ratioP2;P2;SDS_P1;SDS_P2;PMS_P1;PMS_P2;Temp;Humidity;BMP_temperature;BMP_pressure;BME280_temperature;BME280_humidity;BME280_pressure;Samples;Min_cycle;Max_cycle;Signal;HPM_P1;HPM_P2
2022/05/04 00:01:40;;;;;;;7.18;6.50;;;;;;;6.59;70.75;94995.88;5035533;28;20196;-68
2022/05/04 00:04:07;;;;;;;7.30;6.60;;;;;;;6.66;70.70;95004.41;5034973;28;20633;-68
2022/05/04 00:06:36;;;;;;;7.40;6.50;;;;;;;6.60;70.68;95003.78;5034551;28;20194;-69
2022/05/04 00:09:02;;;;;;;6.75;6.10;;;;;;;6.51;70.80;95003.03;5034349;28;20570;-68
2022/05/04 00:11:30;;;;;;;7.97;6.63;;;;;;;6.50;70.66;94994.00;5017430;28;20194;-68
2022/05/04 00:13:57;;;;;;;6.93;6.22;;;;;;;6.54;71.03;95007.84;5034801;28;20189;-69
2022/05/04 00:16:24;;;;;;;7.10;6.40;;;;;;;6.57;70.66;94998.16;5017554;28;20205;-69
2022/05/04 00:18:51;;;;;;;7.50;6.78;;;;;;;6.51;70.55;95008.50;5017644;28;20217;-69
2022/05/04 00:21:18;;;;;;;6.93;6.22;;;;;;;6.47;70.86;95002.88;5033873;28;20201;-69
2022/05/04 00:23:48;;;;;;;7.53;6.60;;;;;;;6.38;70.73;94995.81;5017527;28;20198;-69
2022/05/04 00:26:16;;;;;;;6.75;6.05;;;;;;;6.36;70.91;95001.63;5017021;28;20306;-68
2022/05/04 00:28:43;;;;;;;7.22;6.63;;;;;;;6.41;71.24;94997.91;5034430;28;20254;-68
2022/05/04 00:31:10;;;;;;;7.68;6.47;;;;;;;6.46;70.75;95004.00;5017180;28;20652;-69
2022/05/04 00:33:38;;;;;;;8.45;7.50;;;;;;;6.50;71.05;95004.16;5034028;28;20198;-69
2022/05/04 00:36:05;;;;;;;7.20;6.50;;;;;;;6.54;71.08;95007.84;5033901;28;20744;-69
2022/05/04 00:38:32;;;;;;;7.90;6.60;;;;;;;6.54;71.07;95013.31;5033642;28;20225;-69
2022/05/04 00:41:01;;;;;;;7.17;6.47;;;;;;;6.49;70.81;95010.75;5017226;28;20590;-69
2022/05/04 00:43:28;;;;;;;7.78;6.65;;;;;;;6.39;71.20;95008.38;5033556;28;20194;-68
2022/05/04 00:45:57;;;;;;;7.35;6.65;;;;;;;6.40;71.11;95015.47;5016876;28;20205;-69
2022/05/04 00:48:26;;;;;;;6.90;6.27;;;;;;;6.42;71.33;95015.94;5034495;28;20198;-68
2022/05/04 00:50:53;;;;;;;8.03;6.90;;;;;;;6.45;71.54;95020.75;5017158;28;20212;-69
2022/05/04 00:53:21;;;;;;;6.97;6.37;;;;;;;6.48;71.51;95025.59;5034632;28;20190;-69
2022/05/04 00:55:48;;;;;;;7.13;6.43;;;;;;;6.51;71.48;95030.41;5034098;28;20612;-69
2022/05/04 01:01:03;;;;;;;6.77;6.17;;;;;;;6.51;71.69;95031.22;5016437;28;20213;-68
2022/05/04 01:03:30;;;;;;;6.95;6.32;;;;;;;6.49;71.58;95028.00;5033308;28;20190;-68
2022/05/04 01:05:59;;;;;;;7.50;6.80;;;;;;;6.49;71.47;95036.22;5033808;28;20505;-69
2022/05/04 01:08:26;;;;;;;6.90;6.30;;;;;;;6.47;71.04;95034.94;5033724;28;20201;-68
2022/05/04 01:10:53;;;;;;;7.00;6.30;;;;;;;6.44;71.39;95036.41;5016807;28;20197;-69
2022/05/04 01:13:22;;;;;;;6.78;6.07;;;;;;;6.42;71.57;95030.44;5016526;28;20607;-69
2022/05/04 01:15:50;;;;;;;7.70;6.72;;;;;;;6.39;71.33;95030.28;5033091;28;20199;-69
2022/05/04 01:18:17;;;;;;;7.20;6.50;;;;;;;6.38;71.54;95026.75;5016247;28;20226;-69
2022/05/04 01:20:44;;;;;;;7.50;6.80;;;;;;;6.42;71.88;95027.69;5032861;28;20191;-69
2022/05/04 01:23:13;;;;;;;7.40;6.70;;;;;;;6.38;71.71;95028.69;5016523;28;20669;-69
2022/05/04 01:25:39;;;;;;;6.97;6.37;;;;;;;6.20;70.76;95028.72;5032686;28;20217;-69
2022/05/04 01:28:07;;;;;;;7.60;6.90;;;;;;;6.05;70.88;95028.44;5032345;28;20545;-69
2022/05/04 01:30:35;;;;;;;8.43;6.53;;;;;;;5.96;70.95;95032.00;5016305;28;20205;-68
2022/05/04 01:33:02;;;;;;;6.77;6.17;;;;;;;5.97;71.57;95032.81;5032685;28;20256;-69
2022/05/04 01:35:30;;;;;;;7.03;6.37;;;;;;;6.01;71.33;95025.56;5016648;28;20273;-69
2022/05/04 01:37:59;;;;;;;7.50;6.43;;;;;;;6.03;71.28;95026.03;5017594;28;20331;-69
2022/05/04 01:40:32;;;;;;;6.63;6.00;;;;;;;6.01;71.23;95020.88;5020440;28;20284;-69
2022/05/04 01:42:59;;;;;;;6.57;6.00;;;;;;;6.03;71.21;95024.09;5020122;28;20557;-69
2022/05/04 01:45:26;;;;;;;6.20;5.60;;;;;;;6.06;71.50;95028.09;5036748;28;20593;-68
2022/05/04 01:47:53;;;;;;;9.38;6.65;;;;;;;6.05;71.57;95025.72;5020038;28;20209;-69
2022/05/04 01:50:20;;;;;;;9.05;6.32;;;;;;;5.95;71.29;95035.84;5020108;28;20194;-69
2022/05/04 01:52:47;;;;;;;8.02;6.60;;;;;;;5.88;71.56;95032.81;5019967;28;20285;-69
2022/05/04 01:55:15;;;;;;;6.87;6.13;;;;;;;5.80;71.51;95028.13;5036384;28;20201;-69
2022/05/04 01:57:44;;;;;;;6.88;6.10;;;;;;;5.76;71.88;95022.47;5020226;28;20214;-69
2022/05/04 02:00:11;;;;;;;6.93;5.93;;;;;;;5.77;71.60;95018.66;5037561;28;20174;-68
2022/05/04 02:02:38;;;;;;;7.43;6.63;;;;;;;5.81;72.33;95018.81;5037517;28;20191;-69
2022/05/04 02:05:06;;;;;;;7.40;6.68;;;;;;;5.88;72.54;95031.97;5037574;28;20205;-68
2022/05/04 02:07:35;;;;;;;7.75;6.43;;;;;;;5.83;72.08;95018.47;5019910;28;20301;-68
2022/05/04 02:10:02;;;;;;;6.90;6.30;;;;;;;5.68;71.45;95017.81;5036298;28;20202;-68
2022/05/04 02:12:29;;;;;;;7.35;6.63;;;;;;;5.61;71.38;95017.50;5036840;28;20587;-68
2022/05/04 02:14:58;;;;;;;6.60;5.88;;;;;;;5.59;71.55;95011.53;5036234;28;20208;-68
2022/05/04 02:17:25;;;;;;;6.47;5.88;;;;;;;5.64;72.00;95013.34;5036871;28;20218;-68
2022/05/04 02:19:52;;;;;;;6.55;5.95;;;;;;;5.67;71.87;95008.03;5036958;28;20182;-68
2022/05/04 02:22:19;;;;;;;6.68;6.07;;;;;;;5.74;71.96;95004.81;5036813;28;20202;-68
2022/05/04 02:24:47;;;;;;;6.65;6.05;;;;;;;5.70;71.84;95017.50;5036795;28;20518;-68
2022/05/04 02:27:14;;;;;;;6.27;5.63;;;;;;;5.61;71.72;95013.97;5036930;28;20209;-69
2022/05/04 02:29:41;;;;;;;6.53;5.63;;;;;;;5.55;71.71;95016.06;5036547;28;20230;-69
2022/05/04 02:32:10;;;;;;;6.10;5.47;;;;;;;5.55;72.01;95016.06;5036765;28;20186;-68
2022/05/04 02:37:54;;;;;;;8.77;6.05;;;;;;;5.55;71.42;95021.53;5036903;28;20195;-69
2022/05/04 02:40:10;;;;;;;7.85;6.47;;;;;;;5.58;71.64;95020.09;5036273;28;20221;-69
2022/05/04 02:42:37;;;;;;;6.97;6.27;;;;;;;5.60;72.19;95015.09;5036703;28;20497;-69
2022/05/04 02:45:05;;;;;;;6.70;6.03;;;;;;;5.66;72.07;95013.78;5037008;28;20198;-69
2022/05/04 02:47:33;;;;;;;7.65;6.78;;;;;;;5.70;71.95;95023.81;5036887;28;20277;-68
2022/05/04 02:50:01;;;;;;;9.38;6.72;;;;;;;5.67;71.64;95018.16;5035972;28;20182;-74
2022/05/04 02:52:28;;;;;;;7.60;6.70;;;;;;;5.50;71.33;95021.69;5036347;28;20194;-73
2022/05/04 02:54:57;;;;;;;10.27;7.03;;;;;;;5.41;71.69;95026.34;5036382;28;20197;-73
2022/05/04 02:57:23;;;;;;;10.32;8.23;;;;;;;5.34;72.15;95035.06;5019340;28;20195;-74
2022/05/04 02:59:50;;;;;;;8.07;7.25;;;;;;;5.40;72.21;95036.50;5018925;28;20210;-73
2022/05/04 03:02:29;;;;;;;9.38;7.32;;;;;;;5.46;72.30;95039.88;5018897;28;20198;-73
2022/05/04 03:04:58;;;;;;;9.80;7.07;;;;;;;5.49;72.09;95045.53;5018720;28;20206;-73
2022/05/04 03:07:26;;;;;;;8.17;7.23;;;;;;;5.50;71.84;95055.31;5035616;28;20205;-73
2022/05/04 03:09:53;;;;;;;7.78;7.05;;;;;;;5.49;71.86;95051.00;5036606;28;20190;-73
2022/05/04 03:12:20;;;;;;;9.00;8.05;;;;;;;5.46;71.88;95056.28;5035924;28;20583;-73
2022/05/04 03:14:47;;;;;;;7.90;7.10;;;;;;;5.46;72.32;95061.78;5035946;28;20619;-73
2022/05/04 03:17:14;;;;;;;9.00;7.20;;;;;;;5.48;72.19;95067.72;5035144;28;20211;-73
2022/05/04 03:19:41;;;;;;;8.35;7.00;;;;;;;5.50;72.60;95076.41;5018387;28;20229;-69
2022/05/04 03:22:09;;;;;;;8.93;7.60;;;;;;;5.42;72.67;95071.75;5034950;28;20202;-71
2022/05/04 03:24:39;;;;;;;11.23;8.17;;;;;;;5.36;72.41;95067.53;5035377;28;20206;-68
2022/05/04 03:27:07;;;;;;;8.67;7.70;;;;;;;5.31;71.89;95063.84;5035918;28;20333;-68
2022/05/04 03:29:34;;;;;;;10.52;8.30;;;;;;;5.27;72.40;95073.00;5018521;28;20237;-66
2022/05/04 03:32:01;;;;;;;9.93;8.27;;;;;;;5.29;72.71;95071.53;5035067;28;20201;-67
2022/05/04 03:34:28;;;;;;;9.57;8.70;;;;;;;5.36;72.74;95071.06;5034771;28;20240;-67
2022/05/04 03:36:55;;;;;;;9.20;8.30;;;;;;;5.36;73.02;95075.75;5036021;28;20285;-67
2022/05/04 03:39:23;;;;;;;8.88;7.97;;;;;;;5.41;73.12;95070.94;5035680;28;20206;-67
2022/05/04 03:41:50;;;;;;;13.47;9.70;;;;;;;5.42;73.62;95071.75;5035534;28;20198;-67
2022/05/04 03:44:17;;;;;;;10.27;8.90;;;;;;;5.46;73.67;95083.66;5036424;28;20518;-65
2022/05/04 03:46:45;;;;;;;11.13;8.68;;;;;;;5.51;73.65;95072.53;5035302;28;20272;-66
2022/05/04 03:49:13;;;;;;;9.05;8.15;;;;;;;5.59;73.13;95071.75;5035864;28;20617;-68
2022/05/04 03:51:40;;;;;;;11.60;8.90;;;;;;;5.66;73.74;95074.81;5018131;28;20209;-68
2022/05/04 03:54:09;;;;;;;9.60;8.60;;;;;;;5.80;73.36;95072.72;5035257;28;20203;-68
2022/05/04 03:56:38;;;;;;;12.63;8.30;;;;;;;5.86;72.81;95064.34;5017588;28;20195;-68
2022/05/04 03:59:06;;;;;;;11.60;8.93;;;;;;;5.89;72.95;95071.94;5034978;28;20202;-67
2022/05/04 04:01:33;;;;;;;14.20;9.30;;;;;;;5.96;72.66;95075.00;5034658;28;20191;-67
2022/05/04 04:04:00;;;;;;;13.05;9.20;;;;;;;6.01;72.99;95066.63;5017537;28;20648;-68
2022/05/04 04:06:28;;;;;;;10.20;9.03;;;;;;;6.01;72.63;95067.41;5034978;28;20182;-68
2022/05/04 04:08:56;;;;;;;11.97;8.27;;;;;;;6.03;73.29;95070.66;5034144;28;20208;-67
2022/05/04 04:11:22;;;;;;;10.43;7.60;;;;;;;6.02;72.78;95077.22;5034993;28;20269;-68
2022/05/04 04:13:51;;;;;;;10.77;7.85;;;;;;;6.06;72.49;95085.59;5034654;28;20178;-68
2022/05/04 04:16:19;;;;;;;8.85;7.57;;;;;;;6.02;72.52;95087.38;5034066;28;20198;-68
2022/05/04 04:18:46;;;;;;;9.10;7.47;;;;;;;5.95;72.77;95092.53;5017457;28;20734;-68
2022/05/04 04:24:00;;;;;;;14.20;12.70;;;;;;;5.97;73.23;95091.09;5017086;28;20191;-68
2022/05/04 04:26:27;;;;;;;17.08;15.18;;;;;;;5.99;72.97;95096.25;5017248;28;20206;-67
2022/05/04 04:28:55;;;;;;;20.55;17.33;;;;;;;6.00;72.75;95103.34;5034630;28;20588;-68
2022/05/04 04:31:22;;;;;;;17.23;15.43;;;;;;;5.97;72.45;95115.75;5034572;28;20183;-68
2022/05/04 04:33:49;;;;;;;18.15;15.60;;;;;;;5.94;72.08;95110.91;5017312;28;20230;-68
2022/05/04 04:36:16;;;;;;;15.35;13.75;;;;;;;5.93;72.79;95119.47;5017360;28;20206;-68
2022/05/04 04:38:43;;;;;;;15.52;13.95;;;;;;;5.92;72.59;95113.19;5034470;28;20220;-68
2022/05/04 04:41:10;;;;;;;18.35;16.55;;;;;;;6.07;73.35;95122.84;5017159;28;20193;-68
2022/05/04 04:43:37;;;;;;;17.98;15.95;;;;;;;6.27;72.12;95127.63;5017149;28;20198;-68
2022/05/04 04:46:05;;;;;;;14.43;13.02;;;;;;;6.26;71.68;95125.22;5016958;28;20293;-68
2022/05/04 04:48:32;;;;;;;10.82;9.70;;;;;;;6.24;71.68;95117.31;5034375;28;20197;-68
2022/05/04 04:50:58;;;;;;;10.33;9.33;;;;;;;6.41;71.32;95121.19;5033515;28;20206;-68
2022/05/04 04:53:26;;;;;;;8.82;8.02;;;;;;;6.95;70.29;95113.28;5034223;28;20534;-68
2022/05/04 04:55:53;;;;;;;7.95;6.85;;;;;;;6.96;69.65;95098.44;5033380;28;20198;-68
2022/05/04 04:58:19;;;;;;;7.43;6.72;;;;;;;6.81;70.00;95102.53;5016799;28;20206;-68
2022/05/04 05:00:48;;;;;;;8.07;7.37;;;;;;;6.60;69.86;95102.44;5033243;28;20198;-68
2022/05/04 05:03:18;;;;;;;11.00;8.85;;;;;;;6.56;70.48;95101.47;5033759;28;20629;-68
2022/05/04 05:05:45;;;;;;;10.82;9.85;;;;;;;6.58;71.10;95106.66;5016902;28;20206;-68
2022/05/04 05:08:14;;;;;;;9.75;8.55;;;;;;;6.65;71.40;95107.75;5034078;28;20191;-68
2022/05/04 05:10:41;;;;;;;8.85;7.95;;;;;;;6.72;71.52;95108.06;5033076;28;20201;-68
2022/05/04 05:13:09;;;;;;;10.60;8.30;;;;;;;6.78;71.26;95110.59;5033310;28;20178;-68
2022/05/04 05:18:23;;;;;;;8.75;7.93;;;;;;;6.86;72.58;95116.09;5016052;28;20198;-68
2022/05/04 05:20:53;;;;;;;8.82;7.95;;;;;;;6.90;72.46;95113.47;5033696;28;20200;-68
2022/05/04 05:23:20;;;;;;;9.57;8.73;;;;;;;6.90;72.23;95113.47;5032410;28;20200;-68
2022/05/04 05:25:48;;;;;;;10.95;9.95;;;;;;;6.92;72.55;95117.50;5016471;28;20209;-68
2022/05/04 05:28:16;;;;;;;12.47;11.17;;;;;;;6.96;72.71;95121.19;5032745;28;20209;-68
2022/05/04 05:30:43;;;;;;;12.63;11.33;;;;;;;7.04;72.23;95124.22;5033899;28;20193;-68
2022/05/04 05:33:10;;;;;;;15.73;14.20;;;;;;;7.07;72.38;95121.63;5033731;28;20191;-68
2022/05/04 05:35:38;;;;;;;14.75;13.32;;;;;;;7.06;72.17;95120.03;5016337;28;20198;-68
2022/05/04 05:38:05;;;;;;;16.58;14.93;;;;;;;7.06;72.25;95121.97;5034078;28;20196;-68
2022/05/04 05:40:32;;;;;;;18.83;17.03;;;;;;;7.06;72.44;95120.03;5033412;28;20214;-68
2022/05/04 05:42:59;;;;;;;18.07;15.77;;;;;;;7.12;72.35;95121.47;5016414;28;20194;-68
2022/05/04 05:45:26;;;;;;;16.73;15.13;;;;;;;7.14;71.90;95119.16;5034088;28;20205;-68
2022/05/04 05:47:55;;;;;;;16.37;14.67;;;;;;;7.07;71.67;95116.13;5033782;28;20202;-68
2022/05/04 05:50:22;;;;;;;14.90;9.57;;;;;;;7.11;72.17;95106.09;5033371;28;20237;-68
2022/05/04 05:52:51;;;;;;;10.82;9.57;;;;;;;7.13;72.50;95109.34;5033689;28;20190;-68
2022/05/04 05:55:17;;;;;;;9.95;9.07;;;;;;;7.12;72.39;95106.94;5033782;28;20183;-68
2022/05/04 05:57:45;;;;;;;12.73;10.48;;;;;;;7.15;72.79;95112.56;5016389;28;20205;-68
2022/05/04 06:00:13;;;;;;;12.83;10.80;;;;;;;7.21;72.45;95119.47;5016336;28;20214;-68
2022/05/04 06:02:40;;;;;;;10.33;9.30;;;;;;;7.29;72.67;95106.84;5016345;28;20205;-67
2022/05/04 06:05:08;;;;;;;12.80;9.50;;;;;;;7.33;72.45;95105.03;5033599;28;20182;-67
2022/05/04 06:07:34;;;;;;;13.98;9.90;;;;;;;7.37;72.83;95110.66;5016267;28;20194;-68
2022/05/04 06:10:05;;;;;;;10.27;8.80;;;;;;;7.43;72.56;95109.34;5015952;28;20206;-67
2022/05/04 06:12:33;;;;;;;9.23;8.33;;;;;;;7.52;72.22;95112.84;5033310;28;20197;-67
2022/05/04 06:15:01;;;;;;;8.13;7.47;;;;;;;7.56;71.79;95119.28;5033849;28;20187;-67
2022/05/04 06:17:30;;;;;;;11.27;7.50;;;;;;;7.64;71.89;95125.84;5033391;28;20195;-67
2022/05/04 06:19:58;;;;;;;8.50;7.70;;;;;;;7.71;72.25;95126.94;5016086;28;20649;-67
2022/05/04 06:22:26;;;;;;;10.57;7.97;;;;;;;7.74;71.88;95130.97;5033282;28;20472;-68
2022/05/04 06:24:55;;;;;;;10.07;7.87;;;;;;;7.77;71.45;95126.72;5018125;28;20218;-68
2022/05/04 06:27:28;;;;;;;9.77;8.83;;;;;;;7.82;71.63;95121.06;5036147;28;20586;-68
2022/05/04 06:35:28;;;;;;;10.33;8.43;;;;;;;7.92;69.86;95113.22;5019833;28;20187;-67
2022/05/04 06:37:55;;;;;;;8.77;7.73;;;;;;;7.94;70.09;95115.63;5019314;28;20198;-68
2022/05/04 06:40:22;;;;;;;9.13;7.73;;;;;;;8.02;70.44;95116.69;5019466;28;20307;-68
2022/05/04 06:42:52;;;;;;;8.47;7.67;;;;;;;8.07;70.42;95108.25;5019563;28;20194;-67
2022/05/04 06:45:19;;;;;;;9.10;8.30;;;;;;;8.12;70.67;95110.78;5035983;28;20199;-68
2022/05/04 06:47:45;;;;;;;9.30;7.60;;;;;;;8.17;70.21;95113.34;5036888;28;20305;-68
2022/05/04 06:50:13;;;;;;;8.88;7.97;;;;;;;8.19;70.71;95119.31;5035815;28;20198;-68
2022/05/04 06:52:40;;;;;;;9.60;8.20;;;;;;;8.24;70.40;95113.59;5019242;28;20399;-67
2022/05/04 06:55:08;;;;;;;9.33;8.40;;;;;;;8.32;70.25;95112.72;5019400;28;20206;-68
2022/05/04 06:57:36;;;;;;;9.33;8.43;;;;;;;8.44;70.44;95120.25;5019493;28;20191;-68
2022/05/04 07:00:06;;;;;;;10.60;9.20;;;;;;;8.52;70.73;95111.09;5019158;28;20222;-68
2022/05/04 07:02:34;;;;;;;9.40;8.60;;;;;;;8.60;71.00;95107.44;5018897;28;20202;-68
2022/05/04 07:05:00;;;;;;;8.67;7.73;;;;;;;8.68;70.73;95114.84;5018718;28;20261;-67
2022/05/04 07:07:27;;;;;;;9.15;8.25;;;;;;;8.76;71.17;95113.13;5035332;28;20187;-68
2022/05/04 07:09:55;;;;;;;10.40;8.27;;;;;;;8.82;70.64;95119.19;5036005;28;20193;-67
2022/05/04 07:12:22;;;;;;;7.70;7.00;;;;;;;8.92;70.81;95110.50;5035777;28;20635;-67
2022/05/04 07:14:49;;;;;;;8.30;7.23;;;;;;;8.99;70.42;95108.00;5034997;28;20206;-67
2022/05/04 07:17:19;;;;;;;8.57;7.03;;;;;;;9.09;70.21;95098.50;5035887;28;20191;-68
2022/05/04 07:19:46;;;;;;;10.90;7.73;;;;;;;9.24;70.94;95100.56;5034987;28;20214;-67
2022/05/04 07:22:16;;;;;;;10.67;9.00;;;;;;;9.39;71.13;95099.09;5035976;28;20197;-68
2022/05/04 07:24:43;;;;;;;12.87;10.37;;;;;;;9.48;70.03;95102.53;5034738;28;20626;-67
2022/05/04 07:27:10;;;;;;;9.53;7.43;;;;;;;9.54;68.09;95103.91;5018294;28;20206;-67
2022/05/04 07:29:38;;;;;;;10.30;9.23;;;;;;;9.62;68.26;95102.16;5035847;28;20340;-67
2022/05/04 07:32:06;;;;;;;11.93;9.40;;;;;;;9.76;68.34;95105.34;5034729;28;20194;-67
2022/05/04 07:34:37;;;;;;;10.80;9.80;;;;;;;9.83;68.17;95097.31;5035373;28;20179;-67
2022/05/04 07:37:04;;;;;;;9.00;7.15;;;;;;;9.93;67.84;95107.06;5034914;28;20194;-67
2022/05/04 07:42:24;;;;;;;6.40;5.80;;;;;;;10.12;66.70;95093.44;5002127;28;20223;-67
2022/05/04 07:44:52;;;;;;;5.93;5.30;;;;;;;10.24;67.62;95097.31;5034611;28;20202;-67
2022/05/04 07:47:19;;;;;;;6.77;6.13;;;;;;;10.34;67.28;95094.91;5035453;28;20186;-68
2022/05/04 07:49:48;;;;;;;8.50;6.70;;;;;;;10.44;66.43;95093.59;5034136;28;20602;-68
2022/05/04 07:52:15;;;;;;;5.93;4.80;;;;;;;10.52;64.77;95087.13;5034632;28;20198;-67
2022/05/04 07:54:42;;;;;;;5.00;4.50;;;;;;;10.64;63.63;95090.97;5017946;28;20209;-68
2022/05/04 07:57:12;;;;;;;6.00;5.40;;;;;;;10.75;63.05;95092.09;5035548;28;20183;-68
2022/05/04 07:59:38;;;;;;;5.80;5.20;;;;;;;10.84;62.62;95088.00;5017821;28;20297;-68
2022/05/04 08:04:51;;;;;;;8.07;5.10;;;;;;;11.16;63.44;95089.97;5017613;28;20618;-67
2022/05/04 08:07:20;;;;;;;5.90;4.87;;;;;;;11.30;63.09;95091.13;5034925;28;20282;-67
2022/05/04 08:09:47;;;;;;;6.23;4.97;;;;;;;11.37;61.43;95084.19;5035370;28;20199;-67
2022/05/04 08:12:14;;;;;;;5.87;4.47;;;;;;;11.46;61.12;95076.50;5017563;28;20214;-67
2022/05/04 08:14:41;;;;;;;6.30;4.60;;;;;;;11.63;60.71;95078.09;5035510;28;20202;-67
2022/05/04 08:17:09;;;;;;;5.00;3.90;;;;;;;11.79;61.86;95079.66;5034802;28;20221;-67
2022/05/04 08:19:36;;;;;;;4.60;3.80;;;;;;;11.91;60.57;95075.19;5034865;28;20217;-67
2022/05/04 08:22:04;;;;;;;4.60;4.10;;;;;;;12.04;60.22;95071.94;5017463;28;20203;-67
2022/05/04 08:24:31;;;;;;;6.88;4.00;;;;;;;12.44;61.49;95075.53;5016913;28;20216;-68
2022/05/04 08:26:59;;;;;;;6.10;3.30;;;;;;;12.67;58.29;95072.81;5034620;28;20611;-67
2022/05/04 08:29:29;;;;;;;3.85;3.45;;;;;;;12.79;59.36;95083.72;5017187;28;20326;-67
2022/05/04 08:31:56;;;;;;;5.22;3.60;;;;;;;12.84;57.42;95074.31;5001337;28;20195;-68
2022/05/04 08:34:24;;;;;;;3.15;2.90;;;;;;;12.97;56.73;95064.69;5034686;28;20197;-67
2022/05/04 08:36:50;;;;;;;4.45;3.20;;;;;;;13.07;54.87;95068.78;5017195;28;20198;-67
2022/05/04 08:39:19;;;;;;;3.40;3.10;;;;;;;13.17;53.92;95070.94;5017140;28;20203;-67
2022/05/04 08:41:46;;;;;;;3.58;2.90;;;;;;;13.20;53.65;95065.47;5016446;28;20318;-67
2022/05/04 08:44:13;;;;;;;4.38;3.30;;;;;;;13.30;53.01;95075.16;5033064;28;20206;-67
2022/05/04 08:46:41;;;;;;;3.00;2.80;;;;;;;13.45;55.28;95062.34;5016596;28;20570;-67
2022/05/04 08:49:09;;;;;;;2.95;2.75;;;;;;;13.59;55.63;95064.56;5015754;28;20202;-67
2022/05/04 08:51:37;;;;;;;3.20;2.90;;;;;;;13.69;56.61;95059.19;5033199;28;20244;-68
2022/05/04 08:54:04;;;;;;;3.42;3.03;;;;;;;13.84;55.29;95068.50;5034015;28;20179;-67
2022/05/04 08:56:35;;;;;;;4.85;3.28;;;;;;;13.92;52.85;95061.88;5033923;28;20206;-67
2022/05/04 08:59:03;;;;;;;3.22;2.90;;;;;;;14.07;54.56;95067.63;5016249;28;20592;-67
2022/05/04 09:01:31;;;;;;;2.83;2.60;;;;;;;14.12;49.66;95064.50;5016199;28;20272;-68
2022/05/04 09:03:59;;;;;;;4.20;3.20;;;;;;;14.27;52.29;95068.25;5033055;28;20205;-67
2022/05/04 09:06:27;;;;;;;3.67;2.88;;;;;;;14.47;54.34;95060.59;5016335;28;20259;-67
2022/05/04 09:08:59;;;;;;;3.75;3.05;;;;;;;14.57;54.82;95059.97;5032926;28;20190;-67
2022/05/04 09:11:26;;;;;;;3.00;2.80;;;;;;;14.74;54.49;95062.13;5032550;28;20201;-67
2022/05/04 09:13:54;;;;;;;3.67;3.15;;;;;;;14.88;53.09;95065.06;5032953;28;20209;-67
2022/05/04 09:16:27;;;;;;;5.68;2.83;;;;;;;14.91;50.33;95055.16;5016251;28;20582;-67
2022/05/04 09:18:53;;;;;;;3.83;3.13;;;;;;;14.95;53.39;95053.22;5032459;28;20214;-67
2022/05/04 09:21:22;;;;;;;3.40;3.10;;;;;;;15.08;53.19;95057.34;5032628;28;20214;-67
2022/05/04 09:23:52;;;;;;;3.15;2.90;;;;;;;15.32;55.48;95060.72;5032524;28;20202;-67
2022/05/04 09:26:21;;;;;;;3.50;3.17;;;;;;;15.44;51.86;95051.31;5016394;28;20249;-68
2022/05/04 09:28:50;;;;;;;3.17;2.88;;;;;;;15.49;51.70;95059.28;5015868;28;20239;-68
2022/05/04 09:31:20;;;;;;;3.28;2.97;;;;;;;15.53;47.70;95057.31;5016171;28;20190;-68
2022/05/04 09:33:53;;;;;;;3.22;3.00;;;;;;;15.58;49.29;95048.66;5016399;28;20198;-68
2022/05/04 09:36:32;;;;;;;3.03;2.80;;;;;;;15.64;52.80;95035.97;5033190;28;20197;-68
2022/05/04 09:47:21;;;;;;;2.55;2.35;;;;;;;15.99;47.00;95034.63;5033243;28;20178;-68
2022/05/04 09:49:48;;;;;;;3.55;2.53;;;;;;;16.17;47.98;95027.19;5032665;28;20194;-67
2022/05/04 09:52:16;;;;;;;3.13;2.50;;;;;;;16.35;47.89;95032.84;5033137;28;20190;-67
2022/05/04 09:54:46;;;;;;;4.65;3.53;;;;;;;16.45;47.34;95032.09;5033241;28;20194;-67
2022/05/04 09:57:13;;;;;;;2.90;2.40;;;;;;;16.57;47.19;95028.16;5033708;28;20186;-67
2022/05/04 09:59:43;;;;;;;2.53;2.23;;;;;;;16.68;44.71;95022.63;5035804;28;20194;-68
2022/05/04 10:02:10;;;;;;;2.70;2.50;;;;;;;16.79;45.74;95024.25;5037302;28;20310;-67
2022/05/04 10:04:39;;;;;;;2.60;2.40;;;;;;;16.92;43.96;95030.28;5020229;28;20228;-68
2022/05/04 10:07:07;;;;;;;2.42;2.22;;;;;;;17.02;44.04;95017.53;5037464;28;20195;-67
2022/05/04 10:09:34;;;;;;;2.58;2.38;;;;;;;17.08;44.62;95024.31;5020026;28;20210;-67
2022/05/04 10:12:01;;;;;;;2.20;2.10;;;;;;;17.22;43.13;95018.75;5036559;28;20191;-67
2022/05/04 10:14:30;;;;;;;2.45;2.35;;;;;;;17.25;42.59;95014.41;5019687;28;20623;-67
2022/05/04 10:17:01;;;;;;;2.58;2.38;;;;;;;17.36;44.14;95012.41;5037191;28;20747;-67
2022/05/04 10:19:30;;;;;;;2.97;2.55;;;;;;;17.51;42.23;94997.25;5037136;28;20194;-68
2022/05/04 10:22:01;;;;;;;2.83;2.25;;;;;;;17.62;40.62;94994.47;5035990;28;20210;-68
2022/05/04 10:24:35;;;;;;;2.30;2.20;;;;;;;17.68;43.35;94992.06;5019769;28;20217;-68
2022/05/04 10:27:03;;;;;;;3.10;2.60;;;;;;;17.85;40.91;94999.63;5037001;28;20201;-68
2022/05/04 10:32:32;;;;;;;2.30;2.15;;;;;;;17.93;40.96;94995.63;5019238;28;20198;-68
2022/05/04 10:35:20;;;;;;;2.63;2.42;;;;;;;18.20;41.97;94986.78;5036748;28;20186;-68
2022/05/04 10:38:15;;;;;;;3.88;2.92;;;;;;;18.29;41.66;94982.34;5036672;28;20281;-68
2022/05/04 10:40:51;;;;;;;3.72;2.70;;;;;;;18.33;40.11;94989.91;5035655;28;20240;-68
2022/05/04 10:43:19;;;;;;;2.60;2.40;;;;;;;18.07;40.50;94978.03;5036316;28;20217;-68
2022/05/04 10:45:48;;;;;;;2.67;2.50;;;;;;;17.82;40.36;94989.28;5036652;28;20197;-68
2022/05/04 10:48:26;;;;;;;3.45;2.50;;;;;;;17.48;39.17;94977.75;5036218;28;20190;-68
2022/05/04 10:50:57;;;;;;;2.30;2.20;;;;;;;17.25;41.48;94978.16;5035317;28;20197;-67
2022/05/04 10:53:42;;;;;;;3.03;2.60;;;;;;;17.06;41.39;94979.31;5019043;28;20293;-67
2022/05/04 10:56:10;;;;;;;2.95;2.50;;;;;;;16.97;43.23;94984.50;5035518;28;20208;-68
2022/05/04 10:58:40;;;;;;;3.03;2.60;;;;;;;16.91;41.03;94974.94;5036185;28;20194;-68
2022/05/04 11:01:12;;;;;;;3.05;2.75;;;;;;;16.93;40.89;94967.00;5019039;28;20214;-67
2022/05/04 11:03:55;;;;;;;3.67;2.55;;;;;;;17.04;42.28;94965.00;5018808;28;20194;-67
2022/05/04 11:06:27;;;;;;;2.47;2.30;;;;;;;17.50;46.22;94953.84;5036434;28;20192;-67
2022/05/04 11:09:00;;;;;;;3.13;2.50;;;;;;;17.91;42.32;94964.56;5019174;28;20304;-67
2022/05/04 11:11:28;;;;;;;2.75;2.40;;;;;;;17.91;41.76;94955.38;5035183;28;20509;-68
2022/05/04 11:13:56;;;;;;;2.47;2.15;;;;;;;17.72;40.78;94949.03;5036552;28;20488;-68
2022/05/04 11:16:26;;;;;;;2.47;2.28;;;;;;;17.54;41.52;94951.06;5035819;28;20233;-67
2022/05/04 11:18:54;;;;;;;3.80;2.28;;;;;;;17.38;41.01;94950.66;5036082;28;20288;-67
2022/05/04 11:21:23;;;;;;;2.60;2.30;;;;;;;17.29;40.89;94948.28;5034887;28;20221;-68
2022/05/04 11:23:53;;;;;;;2.65;2.45;;;;;;;17.19;41.71;94952.66;5018577;28;20214;-68
2022/05/04 11:26:24;;;;;;;2.60;2.35;;;;;;;17.13;40.28;94953.47;5035019;28;20217;-68
2022/05/04 11:28:53;;;;;;;4.00;2.33;;;;;;;17.05;40.02;94953.47;5035491;28;20241;-67
2022/05/04 11:31:22;;;;;;;2.67;2.47;;;;;;;17.22;40.39;94949.09;5035860;28;20191;-68
2022/05/04 11:33:51;;;;;;;3.50;2.50;;;;;;;17.40;40.48;94953.88;5018444;28;20527;-68
2022/05/04 11:36:20;;;;;;;2.40;2.20;;;;;;;17.48;39.67;94950.66;5035323;28;20191;-68
2022/05/04 11:38:49;;;;;;;3.28;2.70;;;;;;;17.37;39.00;94943.50;5018301;28;20199;-67
2022/05/04 11:41:18;;;;;;;2.85;2.63;;;;;;;17.33;40.06;94954.66;5035694;28;20221;-68
2022/05/04 11:43:50;;;;;;;2.90;2.70;;;;;;;17.33;39.91;94943.50;5035815;28;20217;-68
2022/05/04 11:46:18;;;;;;;2.88;2.45;;;;;;;17.33;40.59;94949.88;5034778;28;20539;-68
2022/05/04 11:48:47;;;;;;;2.75;2.55;;;;;;;17.40;40.77;94940.72;5017860;28;20204;-68
2022/05/04 11:51:17;;;;;;;2.50;2.30;;;;;;;17.64;41.01;94939.06;5035576;28;20198;-68
2022/05/04 11:53:46;;;;;;;2.72;2.53;;;;;;;18.02;42.61;94934.63;5035107;28;20182;-68
2022/05/04 11:56:14;;;;;;;4.30;2.70;;;;;;;18.27;39.92;94928.16;5018006;28;20230;-68
2022/05/04 11:58:42;;;;;;;2.67;2.47;;;;;;;18.47;39.22;94923.63;5017840;28;20195;-68
2022/05/04 12:01:13;;;;;;;2.47;2.30;;;;;;;18.71;41.07;94933.09;5017822;28;20245;-68
2022/05/04 12:03:42;;;;;;;2.72;2.30;;;;;;;18.95;37.58;94919.38;5035301;28;20204;-68
2022/05/04 12:06:10;;;;;;;2.60;2.40;;;;;;;19.02;36.60;94921.31;5034091;28;20209;-68
2022/05/04 12:08:39;;;;;;;4.00;3.00;;;;;;;19.12;37.24;94918.44;5034103;28;20572;-68
2022/05/04 12:11:08;;;;;;;4.90;2.53;;;;;;;19.40;40.04;94908.22;5017372;28;20202;-68
2022/05/04 12:13:38;;;;;;;2.60;2.40;;;;;;;19.54;38.43;94919.28;5017828;28;20206;-67
2022/05/04 12:16:08;;;;;;;3.30;2.40;;;;;;;19.43;37.18;94910.19;5017749;28;20202;-67